地図

経路データ

SID SEASON NUMBER BASIN SUBBASIN NAME ISO_TIME NATURE LAT LON WMO_WIND WMO_PRES WMO_AGENCY TRACK_TYPE DIST2LAND LANDFALL IFLAG USA_AGENCY USA_ATCF_ID USA_LAT USA_LON USA_RECORD USA_STATUS USA_WIND USA_PRES USA_SSHS USA_R34_NE USA_R34_SE USA_R34_SW USA_R34_NW USA_R50_NE USA_R50_SE USA_R50_SW USA_R50_NW USA_R64_NE USA_R64_SE USA_R64_SW USA_R64_NW USA_POCI USA_ROCI USA_RMW USA_EYE TOKYO_LAT TOKYO_LON TOKYO_GRADE TOKYO_WIND TOKYO_PRES TOKYO_R50_DIR TOKYO_R50_LONG TOKYO_R50_SHORT TOKYO_R30_DIR TOKYO_R30_LONG TOKYO_R30_SHORT TOKYO_LAND CMA_LAT CMA_LON CMA_CAT CMA_WIND CMA_PRES HKO_LAT HKO_LON HKO_CAT HKO_WIND HKO_PRES NEWDELHI_LAT NEWDELHI_LON NEWDELHI_GRADE NEWDELHI_WIND NEWDELHI_PRES NEWDELHI_CI NEWDELHI_DP NEWDELHI_POCI REUNION_LAT REUNION_LON REUNION_TYPE REUNION_WIND REUNION_PRES REUNION_TNUM REUNION_CI REUNION_RMW REUNION_R34_NE REUNION_R34_SE REUNION_R34_SW REUNION_R34_NW REUNION_R50_NE REUNION_R50_SE REUNION_R50_SW REUNION_R50_NW REUNION_R64_NE REUNION_R64_SE REUNION_R64_SW REUNION_R64_NW BOM_LAT BOM_LON BOM_TYPE BOM_WIND BOM_PRES BOM_TNUM BOM_CI BOM_RMW BOM_R34_NE BOM_R34_SE BOM_R34_SW BOM_R34_NW BOM_R50_NE BOM_R50_SE BOM_R50_SW BOM_R50_NW BOM_R64_NE BOM_R64_SE BOM_R64_SW BOM_R64_NW BOM_ROCI BOM_POCI BOM_EYE BOM_POS_METHOD BOM_PRES_METHOD NADI_LAT NADI_LON NADI_CAT NADI_WIND NADI_PRES WELLINGTON_LAT WELLINGTON_LON WELLINGTON_WIND WELLINGTON_PRES DS824_LAT DS824_LON DS824_STAGE DS824_WIND DS824_PRES TD9636_LAT TD9636_LON TD9636_STAGE TD9636_WIND TD9636_PRES TD9635_LAT TD9635_LON TD9635_WIND TD9635_PRES TD9635_ROCI NEUMANN_LAT NEUMANN_LON NEUMANN_CLASS NEUMANN_WIND NEUMANN_PRES MLC_LAT MLC_LON MLC_CLASS MLC_WIND MLC_PRES USA_GUST BOM_GUST BOM_GUST_PER REUNION_GUST REUNION_GUST_PER USA_SEAHGT USA_SEARAD_NE USA_SEARAD_SE USA_SEARAD_SW USA_SEARAD_NW STORM_SPEED STORM_DIR
1894157N19283 1894 20 NA CS NOT_NAMED 1894-06-06 00:00:00 TS 19.0000 -77.4000 35 hurdat_atl main 67 67 O_____________ hurdat_atl AL011894 19.0000 -77.4000 TS 35 0 4 270
1894157N19283 1894 20 NA CS NOT_NAMED 1894-06-06 03:00:00 TS 19.0000 -77.5925 main 67 67 P_____________ AL011894 19.0000 -77.5925 TS 35 0 4 270
1894157N19283 1894 20 NA CS NOT_NAMED 1894-06-06 06:00:00 TS 19.0000 -77.8000 35 hurdat_atl main 67 67 O_____________ hurdat_atl AL011894 19.0000 -77.8000 TS 35 0 4 270
1894157N19283 1894 20 NA CS NOT_NAMED 1894-06-06 09:00:00 TS 19.0000 -78.0350 main 67 67 P_____________ AL011894 19.0000 -78.0350 TS 35 0 5 270
1894157N19283 1894 20 NA CS NOT_NAMED 1894-06-06 12:00:00 TS 19.0000 -78.3000 35 hurdat_atl main 67 67 O_____________ hurdat_atl AL011894 19.0000 -78.3000 TS 35 0 5 269
1894157N19283 1894 20 NA CS NOT_NAMED 1894-06-06 15:00:00 TS 18.9925 -78.6000 main 74 74 P_____________ AL011894 18.9925 -78.6000 TS 35 0 6 270
1894157N19283 1894 20 NA CS NOT_NAMED 1894-06-06 18:00:00 TS 19.0000 -78.9000 35 hurdat_atl main 92 92 O_____________ hurdat_atl AL011894 19.0000 -78.9000 TS 35 0 5 276
1894157N19283 1894 20 NA CS NOT_NAMED 1894-06-06 21:00:00 TS 19.0424 -79.1425 main 107 107 P_____________ AL011894 19.0424 -79.1425 TS 35 0 5 282
1894157N19283 1894 20 NA CS NOT_NAMED 1894-06-07 00:00:00 TS 19.1000 -79.4000 35 hurdat_atl main 139 139 O_____________ hurdat_atl AL011894 19.1000 -79.4000 TS 35 0 6 281
1894157N19283 1894 20 NA CS NOT_NAMED 1894-06-07 03:00:00 TS 19.1501 -79.7425 main 172 172 P_____________ AL011894 19.1501 -79.7425 TS 35 0 7 279
1894157N19283 1894 20 NA CS NOT_NAMED 1894-06-07 06:00:00 TS 19.2000 -80.1000 35 hurdat_atl main 209 209 O_____________ hurdat_atl AL011894 19.2000 -80.1000 TS 35 0 6 279
1894157N19283 1894 20 NA CS NOT_NAMED 1894-06-07 09:00:00 TS 19.2499 -80.4150 main 238 238 P_____________ AL011894 19.2499 -80.4150 TS 35 0 6 280
1894157N19283 1894 20 NA CS NOT_NAMED 1894-06-07 12:00:00 TS 19.3000 -80.7000 35 hurdat_atl main 271 271 O_____________ hurdat_atl AL011894 19.3000 -80.7000 TS 35 0 5 282
1894157N19283 1894 20 NA CS NOT_NAMED 1894-06-07 15:00:00 TS 19.3498 -80.9276 main 284 273 P_____________ AL011894 19.3498 -80.9276 TS 35 0 5 282
1894157N19283 1894 20 NA CS NOT_NAMED 1894-06-07 18:00:00 TS 19.4000 -81.2000 35 hurdat_atl main 278 256 O_____________ hurdat_atl AL011894 19.4000 -81.2000 TS 35 0 7 278
1894157N19283 1894 20 NA CS NOT_NAMED 1894-06-07 21:00:00 TS 19.4502 -81.6425 main 246 224 P_____________ AL011894 19.4502 -81.6425 TS 35 0 9 277
1894157N19283 1894 20 NA CS NOT_NAMED 1894-06-08 00:00:00 TS 19.5000 -82.1000 35 hurdat_atl main 224 216 O_____________ hurdat_atl AL011894 19.5000 -82.1000 TS 35 0 7 278
1894157N19283 1894 20 NA CS NOT_NAMED 1894-06-08 03:00:00 TS 19.5498 -82.4225 main 216 201 P_____________ AL011894 19.5498 -82.4225 TS 35 0 6 280
1894157N19283 1894 20 NA CS NOT_NAMED 1894-06-08 06:00:00 TS 19.6000 -82.7000 35 hurdat_atl main 201 201 O_____________ hurdat_atl AL011894 19.6000 -82.7000 TS 35 0 6 280
1894157N19283 1894 20 NA CS NOT_NAMED 1894-06-08 09:00:00 TS 19.6425 -83.0075 main 202 192 P_____________ AL011894 19.6425 -83.0075 TS 35 0 6 280
1894157N19283 1894 20 NA CS NOT_NAMED 1894-06-08 12:00:00 TS 19.7000 -83.3000 35 hurdat_atl main 197 193 O_____________ hurdat_atl AL011894 19.7000 -83.3000 TS 35 0 5 286
1894157N19283 1894 20 NA CS NOT_NAMED 1894-06-08 15:00:00 TS 19.7924 -83.5500 main 197 192 P_____________ AL011894 19.7924 -83.5500 TS 35 0 5 293
1894157N19283 1894 20 NA CS NOT_NAMED 1894-06-08 18:00:00 TS 19.9000 -83.8000 35 hurdat_atl main 197 197 O_____________ hurdat_atl AL011894 19.9000 -83.8000 TS 35 0 5 291
1894157N19283 1894 20 NA CS NOT_NAMED 1894-06-08 21:00:00 TS 19.9925 -84.0926 main 203 190 P_____________ AL011894 19.9925 -84.0926 TS 35 0 6 290
1894157N19283 1894 20 NA CS NOT_NAMED 1894-06-09 00:00:00 TS 20.1000 -84.4000 35 hurdat_atl main 190 178 O_____________ hurdat_atl AL011894 20.1000 -84.4000 TS 35 0 6 293
1894157N19283 1894 20 NA CS NOT_NAMED 1894-06-09 03:00:00 TS 20.2425 -84.7075 main 179 156 P_____________ AL011894 20.2425 -84.7075 TS 35 0 6 298
1894157N19283 1894 20 NA CS NOT_NAMED 1894-06-09 06:00:00 TS 20.4000 -85.0000 35 hurdat_atl main 157 148 O_____________ hurdat_atl AL011894 20.4000 -85.0000 TS 35 0 6 301
1894157N19283 1894 20 NA CS NOT_NAMED 1894-06-09 09:00:00 TS 20.5499 -85.2576 main 154 132 P_____________ AL011894 20.5499 -85.2576 TS 35 0 6 303
1894157N19283 1894 20 NA CS NOT_NAMED 1894-06-09 12:00:00 TS 20.7000 -85.5000 35 hurdat_atl main 132 109 O_____________ hurdat_atl AL011894 20.7000 -85.5000 TS 35 0 5 303
1894157N19283 1894 20 NA CS NOT_NAMED 1894-06-09 15:00:00 TS 20.8501 -85.7474 main 106 73 P_____________ AL011894 20.8501 -85.7474 TS 35 0 6 303
1894157N19283 1894 20 NA CS NOT_NAMED 1894-06-09 18:00:00 TS 21.0000 -86.0000 35 hurdat_atl main 73 O_____________ hurdat_atl AL011894 21.0000 -86.0000 TS 35 0 6 302

IBTrACS Databaseについて

本データベースは、米国NOAAが公開する1842年以降の世界の熱帯低気圧のベストトラックデータアーカイブInternational Best Track Archive for Climate Stewardship (IBTrACS)を、ウェブで閲覧しやすい形式に変換したものです。

最終更新日:2021-12-06